Time;durP1;ratioP1;P1;durP2;ratioP2;P2;SDS_P1;SDS_P2;PMS_P1;PMS_P2;Temp;Humidity;BMP_temperature;BMP_pressure;BME280_temperature;BME280_humidity;BME280_pressure;Samples;Min_cycle;Max_cycle;Signal;HPM_P1;HPM_P2
2022/09/23 00:01:03;;;;;;;7.50;4.22;;;;;;;;;;4950783;28;20526;-72
2022/09/23 00:03:36;;;;;;;7.22;4.20;;;;;;;;;;4952906;28;20044;-72
2022/09/23 00:06:07;;;;;;;10.25;4.63;;;;;;;;;;4948827;28;20118;-74
2022/09/23 00:08:33;;;;;;;7.22;4.20;;;;;;;;;;4950403;28;20048;-74
2022/09/23 00:11:07;;;;;;;9.73;4.20;;;;;;;;;;4950988;28;20053;-72
2022/09/23 00:13:34;;;;;;;11.23;4.20;;;;;;;;;;4947936;28;20150;-75
2022/09/23 00:16:05;;;;;;;6.00;4.30;;;;;;;;;;4945997;28;20085;-74
2022/09/23 00:18:31;;;;;;;8.43;4.35;;;;;;;;;;4949609;28;20126;-73
2022/09/23 00:21:02;;;;;;;10.15;4.50;;;;;;;;;;4946889;28;20043;-73
2022/09/23 00:23:28;;;;;;;11.52;4.43;;;;;;;;;;4947695;28;20379;-74
2022/09/23 00:25:57;;;;;;;7.57;4.47;;;;;;;;;;4950762;28;20051;-74
2022/09/23 00:28:24;;;;;;;11.10;4.38;;;;;;;;;;4949749;28;20134;-72
2022/09/23 00:30:49;;;;;;;8.45;4.43;;;;;;;;;;4947551;28;20131;-72
2022/09/23 00:33:15;;;;;;;7.85;4.00;;;;;;;;;;4952571;28;20099;-75
2022/09/23 00:35:41;;;;;;;10.63;3.97;;;;;;;;;;4952509;28;20047;-72
2022/09/23 00:38:07;;;;;;;11.27;4.53;;;;;;;;;;4949812;28;20051;-74
2022/09/23 00:40:33;;;;;;;6.28;3.97;;;;;;;;;;4952284;28;20437;-76
2022/09/23 00:42:59;;;;;;;7.65;4.43;;;;;;;;;;4952953;28;20061;-75
2022/09/23 00:45:25;;;;;;;11.82;4.10;;;;;;;;;;4952114;28;20118;-72
2022/09/23 00:47:54;;;;;;;9.05;4.30;;;;;;;;;;4950430;28;20046;-72
2022/09/23 00:50:36;;;;;;;9.20;4.43;;;;;;;;;;4951553;28;20452;-73
2022/09/23 00:53:06;;;;;;;6.35;4.50;;;;;;;;;;4949213;28;20150;-73
2022/09/23 00:55:39;;;;;;;7.90;4.68;;;;;;;;;;4942825;28;20490;-72
2022/09/23 00:58:08;;;;;;;10.00;4.85;;;;;;;;;;4952824;28;20501;-71
2022/09/23 01:00:34;;;;;;;10.27;4.50;;;;;;;;;;4951920;28;20277;-75
2022/09/23 01:03:01;;;;;;;9.05;4.43;;;;;;;;;;4951690;28;20165;-73
2022/09/23 01:05:26;;;;;;;7.25;4.40;;;;;;;;;;4940759;28;20082;-72
2022/09/23 01:07:56;;;;;;;9.20;4.65;;;;;;;;;;4947371;28;20460;-72
2022/09/23 01:10:23;;;;;;;11.73;4.93;;;;;;;;;;4949469;28;20043;-72
2022/09/23 01:13:20;;;;;;;8.38;5.03;;;;;;;;;;4949391;28;20515;-72
2022/09/23 01:15:59;;;;;;;7.57;4.30;;;;;;;;;;4944081;28;20488;-75
2022/09/23 01:18:47;;;;;;;8.38;4.57;;;;;;;;;;4949677;28;20059;-72
2022/09/23 01:21:19;;;;;;;9.55;4.90;;;;;;;;;;4941064;28;20114;-72
2022/09/23 01:24:07;;;;;;;8.32;4.60;;;;;;;;;;4947409;28;20035;-72
2022/09/23 01:26:48;;;;;;;8.82;4.60;;;;;;;;;;4952296;28;20485;-72
2022/09/23 01:29:41;;;;;;;8.07;4.97;;;;;;;;;;4949040;28;20066;-70
2022/09/23 01:32:46;;;;;;;11.23;4.97;;;;;;;;;;4949603;28;20125;-75
2022/09/23 01:35:23;;;;;;;9.13;4.72;;;;;;;;;;4949931;28;20134;-72
2022/09/23 01:38:15;;;;;;;10.10;4.75;;;;;;;;;;4944138;28;20536;-71
2022/09/23 01:40:59;;;;;;;7.68;4.35;;;;;;;;;;4947146;28;20047;-72
2022/09/23 01:44:14;;;;;;;9.13;4.45;;;;;;;;;;4947819;28;20334;-72
2022/09/23 01:46:40;;;;;;;12.07;5.03;;;;;;;;;;4948590;28;20500;-72
2022/09/23 01:49:27;;;;;;;7.30;4.40;;;;;;;;;;4948825;28;20050;-71
2022/09/23 01:52:04;;;;;;;7.70;4.30;;;;;;;;;;4940700;28;20051;-71
2022/09/23 01:55:04;;;;;;;11.07;4.45;;;;;;;;;;4949709;28;20109;-72
2022/09/23 01:57:36;;;;;;;12.93;4.30;;;;;;;;;;4945907;28;20123;-73
2022/09/23 02:00:12;;;;;;;6.78;3.80;;;;;;;;;;4950234;28;20043;-74
2022/09/23 02:02:58;;;;;;;7.68;3.80;;;;;;;;;;4950365;28;20075;-72
2022/09/23 02:05:26;;;;;;;12.18;3.63;;;;;;;;;;4949564;28;20413;-73
2022/09/23 02:07:58;;;;;;;8.73;3.63;;;;;;;;;;4950596;28;20077;-72
2022/09/23 02:10:29;;;;;;;6.50;3.90;;;;;;;;;;4951999;28;20475;-71
2022/09/23 02:13:04;;;;;;;7.43;3.58;;;;;;;;;;4951239;28;20051;-71
2022/09/23 02:15:40;;;;;;;6.93;4.18;;;;;;;;;;4950384;28;20405;-72
2022/09/23 02:18:20;;;;;;;6.53;4.00;;;;;;;;;;4950398;28;20051;-72
2022/09/23 02:20:47;;;;;;;6.50;4.07;;;;;;;;;;4949495;28;20051;-70
2022/09/23 02:23:18;;;;;;;12.85;3.83;;;;;;;;;;4952923;28;20458;-71
2022/09/23 02:25:46;;;;;;;7.93;3.50;;;;;;;;;;4949451;28;20311;-71
2022/09/23 02:28:24;;;;;;;11.45;4.15;;;;;;;;;;4951314;28;20039;-74
2022/09/23 02:31:06;;;;;;;5.43;3.95;;;;;;;;;;4948132;28;20664;-73
2022/09/23 02:33:51;;;;;;;5.75;3.80;;;;;;;;;;4949241;28;20047;-72
2022/09/23 02:36:26;;;;;;;7.70;3.65;;;;;;;;;;4947457;28;20065;-74
2022/09/23 02:38:56;;;;;;;6.93;3.88;;;;;;;;;;4962149;28;20170;-73
2022/09/23 02:41:28;;;;;;;7.57;4.00;;;;;;;;;;4954540;28;20053;-72
2022/09/23 02:44:11;;;;;;;9.48;4.22;;;;;;;;;;4956059;28;20059;-73
2022/09/23 02:46:37;;;;;;;6.30;3.45;;;;;;;;;;4950498;28;20050;-72
2022/09/23 02:49:12;;;;;;;8.70;3.60;;;;;;;;;;4955153;28;20043;-72
2022/09/23 02:51:39;;;;;;;8.10;3.97;;;;;;;;;;4959063;28;20039;-73
2022/09/23 02:54:09;;;;;;;6.97;3.55;;;;;;;;;;4953134;28;20049;-72
2022/09/23 02:56:36;;;;;;;8.15;3.95;;;;;;;;;;4953481;28;22000;-72
2022/09/23 02:59:03;;;;;;;6.85;4.07;;;;;;;;;;4954790;28;20051;-71
2022/09/23 03:01:34;;;;;;;6.72;3.28;;;;;;;;;;4953364;28;20050;-71
2022/09/23 03:04:20;;;;;;;6.75;4.10;;;;;;;;;;4951359;28;20055;-74
2022/09/23 03:06:55;;;;;;;6.95;3.75;;;;;;;;;;4954853;28;20078;-72
2022/09/23 03:09:38;;;;;;;6.45;3.65;;;;;;;;;;4953846;28;20102;-74
2022/09/23 03:12:34;;;;;;;9.70;3.83;;;;;;;;;;4953878;28;20509;-73
2022/09/23 03:15:06;;;;;;;8.25;3.72;;;;;;;;;;4950997;28;20067;-71
2022/09/23 03:17:38;;;;;;;8.35;4.00;;;;;;;;;;4952917;28;20047;-73
2022/09/23 03:20:27;;;;;;;6.68;3.80;;;;;;;;;;4946425;28;20490;-72
2022/09/23 03:23:01;;;;;;;8.38;3.55;;;;;;;;;;4948243;28;20099;-72
2022/09/23 03:25:30;;;;;;;9.40;3.63;;;;;;;;;;4954441;28;20067;-72
2022/09/23 03:27:59;;;;;;;6.38;3.88;;;;;;;;;;4954656;28;20054;-72
2022/09/23 03:30:25;;;;;;;7.10;3.85;;;;;;;;;;4952927;28;20110;-74
2022/09/23 03:32:53;;;;;;;6.43;3.80;;;;;;;;;;4953820;28;20050;-71
2022/09/23 03:35:23;;;;;;;11.52;4.10;;;;;;;;;;4956430;28;20122;-73
2022/09/23 03:38:16;;;;;;;7.28;3.97;;;;;;;;;;4953075;28;20055;-73
2022/09/23 03:40:46;;;;;;;6.82;4.00;;;;;;;;;;4947149;28;20102;-71
2022/09/23 03:43:13;;;;;;;6.63;3.63;;;;;;;;;;4946286;28;20405;-72
2022/09/23 03:45:40;;;;;;;10.30;4.13;;;;;;;;;;4950667;28;20419;-71
2022/09/23 03:48:06;;;;;;;12.20;4.20;;;;;;;;;;4955614;28;20050;-71
2022/09/23 03:50:34;;;;;;;5.88;4.00;;;;;;;;;;4949885;28;20134;-70
2022/09/23 03:53:00;;;;;;;6.93;3.70;;;;;;;;;;4946087;28;20047;-74
2022/09/23 03:55:26;;;;;;;6.80;3.75;;;;;;;;;;4954408;28;20077;-72
2022/09/23 03:57:54;;;;;;;8.50;3.80;;;;;;;;;;4953503;28;20563;-71
2022/09/23 04:00:20;;;;;;;8.27;4.05;;;;;;;;;;4951059;28;20111;-72
2022/09/23 04:02:46;;;;;;;7.63;3.95;;;;;;;;;;4953137;28;20591;-71
2022/09/23 04:05:12;;;;;;;5.45;3.90;;;;;;;;;;4953814;28;20049;-72
2022/09/23 04:07:39;;;;;;;8.75;3.75;;;;;;;;;;4946485;28;20043;-73
2022/09/23 04:10:05;;;;;;;11.23;5.30;;;;;;;;;;4949403;28;20126;-73
2022/09/23 04:12:31;;;;;;;11.60;4.47;;;;;;;;;;4951595;28;20047;-70
2022/09/23 04:14:57;;;;;;;8.30;4.07;;;;;;;;;;4953570;28;20050;-71
2022/09/23 04:17:23;;;;;;;6.25;4.15;;;;;;;;;;4951714;28;20063;-73
2022/09/23 04:19:49;;;;;;;9.32;4.30;;;;;;;;;;4949574;28;20050;-72
2022/09/23 04:22:14;;;;;;;8.88;3.92;;;;;;;;;;4948397;28;20413;-72
2022/09/23 04:24:40;;;;;;;9.52;4.07;;;;;;;;;;4951404;28;20058;-72
2022/09/23 04:27:06;;;;;;;7.95;3.97;;;;;;;;;;4951540;28;20053;-72
2022/09/23 04:29:32;;;;;;;5.05;3.67;;;;;;;;;;4950463;28;20127;-72
2022/09/23 04:31:58;;;;;;;10.88;4.22;;;;;;;;;;4947717;28;20075;-73
2022/09/23 04:34:24;;;;;;;8.55;4.05;;;;;;;;;;4950874;28;20125;-73
2022/09/23 04:36:49;;;;;;;6.78;3.88;;;;;;;;;;4951174;28;20126;-73
2022/09/23 04:39:16;;;;;;;7.95;3.83;;;;;;;;;;4952128;28;20098;-71
2022/09/23 04:41:45;;;;;;;5.10;3.60;;;;;;;;;;4948838;28;20051;-74
2022/09/23 04:44:12;;;;;;;7.55;3.70;;;;;;;;;;4949221;28;20035;-71
2022/09/23 04:46:42;;;;;;;7.55;3.75;;;;;;;;;;4949300;28;20047;-75
2022/09/23 04:49:08;;;;;;;6.90;4.03;;;;;;;;;;4947038;28;20035;-74
2022/09/23 04:51:34;;;;;;;5.75;3.83;;;;;;;;;;4938627;28;20413;-75
2022/09/23 04:54:00;;;;;;;7.53;3.70;;;;;;;;;;4942177;28;20057;-76
2022/09/23 04:56:28;;;;;;;8.50;4.18;;;;;;;;;;4946012;28;20483;-73
2022/09/23 04:58:57;;;;;;;7.30;3.70;;;;;;;;;;4945867;28;20102;-72
2022/09/23 05:01:26;;;;;;;10.60;3.97;;;;;;;;;;4940419;28;20047;-74
2022/09/23 05:03:56;;;;;;;10.13;4.05;;;;;;;;;;4939617;28;20051;-73
2022/09/23 05:06:23;;;;;;;8.65;3.95;;;;;;;;;;4940885;28;20039;-73
2022/09/23 05:08:51;;;;;;;11.15;4.50;;;;;;;;;;4934729;28;20047;-71
2022/09/23 05:11:17;;;;;;;7.10;4.15;;;;;;;;;;4942761;28;20544;-73
2022/09/23 05:13:45;;;;;;;10.15;4.65;;;;;;;;;;4945970;28;20079;-74
2022/09/23 05:16:11;;;;;;;6.90;4.38;;;;;;;;;;4944985;28;20046;-74
2022/09/23 05:18:42;;;;;;;9.27;4.22;;;;;;;;;;4944077;28;20055;-71
2022/09/23 05:21:14;;;;;;;8.70;4.47;;;;;;;;;;4938572;28;20051;-71
2022/09/23 05:23:41;;;;;;;14.35;4.40;;;;;;;;;;4945396;28;20075;-71
2022/09/23 05:26:10;;;;;;;9.75;4.10;;;;;;;;;;4944184;28;20078;-73
2022/09/23 05:28:38;;;;;;;9.38;4.35;;;;;;;;;;4959457;28;20211;-71
2022/09/23 05:31:07;;;;;;;8.43;4.05;;;;;;;;;;4940449;28;20047;-72
2022/09/23 05:33:35;;;;;;;9.38;4.50;;;;;;;;;;4939548;28;20571;-75
2022/09/23 05:36:02;;;;;;;10.98;3.88;;;;;;;;;;4944132;28;20978;-73
2022/09/23 05:38:29;;;;;;;8.30;4.07;;;;;;;;;;4941902;28;20061;-71
2022/09/23 05:40:56;;;;;;;12.43;4.78;;;;;;;;;;4943237;28;20044;-72
2022/09/23 05:43:23;;;;;;;11.30;4.72;;;;;;;;;;4938808;28;20070;-74
2022/09/23 05:45:50;;;;;;;11.27;5.25;;;;;;;;;;4941645;28;20490;-71
2022/09/23 05:48:15;;;;;;;13.98;4.90;;;;;;;;;;4941945;28;20095;-73
2022/09/23 05:50:51;;;;;;;9.00;4.85;;;;;;;;;;4936074;28;20170;-73
2022/09/23 05:53:18;;;;;;;10.65;4.55;;;;;;;;;;4938528;28;20504;-72
2022/09/23 05:55:44;;;;;;;9.07;4.22;;;;;;;;;;4940824;28;20047;-72
2022/09/23 05:58:13;;;;;;;12.65;4.38;;;;;;;;;;4936979;28;20047;-73
2022/09/23 06:00:41;;;;;;;10.30;4.75;;;;;;;;;;4940080;28;20059;-71
2022/09/23 06:03:18;;;;;;;10.00;3.97;;;;;;;;;;4936670;28;20720;-74
2022/09/23 06:05:45;;;;;;;7.03;4.20;;;;;;;;;;4953251;28;20109;-72
2022/09/23 06:08:11;;;;;;;8.57;4.72;;;;;;;;;;4942882;28;20050;-72
2022/09/23 06:10:39;;;;;;;12.82;5.30;;;;;;;;;;4941639;28;20478;-73
2022/09/23 06:13:06;;;;;;;13.73;5.97;;;;;;;;;;4941435;28;20109;-73
2022/09/23 06:15:31;;;;;;;17.02;5.53;;;;;;;;;;4942331;28;20105;-68
2022/09/23 06:17:58;;;;;;;12.43;4.97;;;;;;;;;;4946866;28;20501;-66
2022/09/23 06:20:25;;;;;;;13.63;4.60;;;;;;;;;;4946406;28;20054;-71
2022/09/23 06:22:52;;;;;;;10.75;4.72;;;;;;;;;;4947047;28;20073;-68
2022/09/23 06:25:18;;;;;;;8.48;4.65;;;;;;;;;;4950912;28;20512;-68
2022/09/23 06:27:54;;;;;;;8.98;4.40;;;;;;;;;;4950452;28;20050;-69
2022/09/23 06:30:21;;;;;;;11.45;5.20;;;;;;;;;;4949038;28;20505;-71
2022/09/23 06:32:52;;;;;;;14.40;4.28;;;;;;;;;;4947550;28;20484;-67
2022/09/23 06:35:19;;;;;;;24.95;5.00;;;;;;;;;;4947406;28;20094;-73
2022/09/23 06:37:45;;;;;;;10.75;4.95;;;;;;;;;;4946347;28;20185;-69
2022/09/23 06:40:13;;;;;;;14.50;5.00;;;;;;;;;;4941466;28;20043;-71
2022/09/23 06:42:40;;;;;;;10.20;4.90;;;;;;;;;;4948952;28;20043;-70
2022/09/23 06:45:06;;;;;;;10.07;4.47;;;;;;;;;;4948325;28;20051;-67
2022/09/23 06:47:32;;;;;;;7.85;4.40;;;;;;;;;;4954738;28;20217;-69
2022/09/23 06:49:58;;;;;;;11.88;5.00;;;;;;;;;;4946500;28;20548;-69
2022/09/23 06:52:25;;;;;;;13.88;4.60;;;;;;;;;;4940146;28;20047;-70
2022/09/23 06:54:51;;;;;;;14.43;4.70;;;;;;;;;;4947162;28;20051;-69
2022/09/23 06:57:17;;;;;;;14.13;5.05;;;;;;;;;;4953042;28;20616;-70
2022/09/23 06:59:43;;;;;;;8.70;4.82;;;;;;;;;;4952372;28;20416;-69
2022/09/23 07:02:09;;;;;;;8.10;4.75;;;;;;;;;;4948090;28;20074;-70
2022/09/23 07:04:35;;;;;;;11.73;5.10;;;;;;;;;;4951201;28;20445;-67
2022/09/23 07:07:00;;;;;;;12.32;4.88;;;;;;;;;;4953014;28;20059;-70
2022/09/23 07:09:26;;;;;;;15.65;5.30;;;;;;;;;;4949462;28;20054;-68
2022/09/23 07:11:52;;;;;;;10.95;5.10;;;;;;;;;;4947918;28;20061;-68
2022/09/23 07:14:18;;;;;;;15.52;4.90;;;;;;;;;;4951754;28;20413;-69
2022/09/23 07:16:48;;;;;;;13.50;4.80;;;;;;;;;;4951117;28;20051;-69
2022/09/23 07:19:13;;;;;;;10.90;4.57;;;;;;;;;;4952574;28;20401;-70
2022/09/23 07:21:39;;;;;;;14.52;4.85;;;;;;;;;;4951770;28;20050;-69
2022/09/23 07:24:06;;;;;;;17.77;5.28;;;;;;;;;;4945760;28;20128;-69
2022/09/23 07:26:32;;;;;;;11.18;4.47;;;;;;;;;;4950801;28;20077;-69
2022/09/23 07:29:03;;;;;;;8.90;4.47;;;;;;;;;;4948420;28;20091;-70
2022/09/23 07:31:31;;;;;;;11.55;4.72;;;;;;;;;;4952855;28;20127;-70
2022/09/23 07:33:59;;;;;;;17.88;4.45;;;;;;;;;;4949084;28;20043;-70
2022/09/23 07:36:26;;;;;;;13.40;4.95;;;;;;;;;;4962729;28;20050;-73
2022/09/23 07:38:59;;;;;;;19.95;6.30;;;;;;;;;;4952866;28;20437;-71
2022/09/23 07:41:27;;;;;;;13.82;4.40;;;;;;;;;;4961105;28;20055;-69
2022/09/23 07:43:57;;;;;;;11.88;5.22;;;;;;;;;;4953653;28;20059;-70
2022/09/23 07:46:26;;;;;;;18.08;5.57;;;;;;;;;;4946041;28;20126;-69
2022/09/23 07:48:53;;;;;;;13.20;4.63;;;;;;;;;;4941995;28;20051;-70
2022/09/23 07:51:25;;;;;;;11.57;4.30;;;;;;;;;;4951122;28;20051;-71
2022/09/23 07:53:53;;;;;;;12.50;5.00;;;;;;;;;;4952077;28;20059;-71
2022/09/23 07:56:23;;;;;;;10.05;4.57;;;;;;;;;;4950300;28;20482;-70
2022/09/23 07:58:58;;;;;;;10.88;4.50;;;;;;;;;;4951261;28;20047;-68
2022/09/23 08:01:27;;;;;;;9.80;4.63;;;;;;;;;;4951035;28;20074;-70
2022/09/23 08:03:55;;;;;;;13.50;4.55;;;;;;;;;;4949060;28;20047;-70
2022/09/23 08:06:22;;;;;;;10.60;4.63;;;;;;;;;;4939293;28;20063;-70
2022/09/23 08:08:48;;;;;;;13.30;4.55;;;;;;;;;;4948325;28;20094;-68
2022/09/23 08:11:14;;;;;;;9.73;4.32;;;;;;;;;;4952101;28;20134;-69
2022/09/23 08:13:41;;;;;;;8.00;3.88;;;;;;;;;;4950890;28;20150;-68
2022/09/23 08:16:07;;;;;;;9.13;4.00;;;;;;;;;;4950850;28;20077;-69
2022/09/23 08:18:33;;;;;;;12.00;4.82;;;;;;;;;;4950199;28;20047;-71
2022/09/23 08:20:59;;;;;;;10.30;4.50;;;;;;;;;;4949417;28;20070;-69
2022/09/23 08:23:25;;;;;;;11.60;4.32;;;;;;;;;;4950680;28;20051;-69
2022/09/23 08:26:02;;;;;;;9.43;3.90;;;;;;;;;;4951717;28;20092;-69
2022/09/23 08:28:29;;;;;;;9.35;4.50;;;;;;;;;;4951207;28;20106;-74
2022/09/23 08:30:55;;;;;;;12.52;4.70;;;;;;;;;;4958912;28;20074;-69
2022/09/23 08:33:21;;;;;;;11.60;4.45;;;;;;;;;;4951681;28;20070;-70
2022/09/23 08:35:47;;;;;;;10.05;4.53;;;;;;;;;;4952807;28;20051;-71
2022/09/23 08:38:13;;;;;;;15.25;4.15;;;;;;;;;;4951961;28;20062;-72
2022/09/23 08:40:42;;;;;;;13.88;4.93;;;;;;;;;;4951681;28;20509;-71
2022/09/23 08:43:27;;;;;;;9.70;5.43;;;;;;;;;;4950584;28;20055;-73
2022/09/23 08:45:55;;;;;;;8.57;4.57;;;;;;;;;;4951347;28;20043;-70
2022/09/23 08:48:33;;;;;;;9.43;4.63;;;;;;;;;;4965341;28;20165;-70
2022/09/23 08:51:11;;;;;;;8.75;4.57;;;;;;;;;;4951514;28;20095;-72
2022/09/23 08:53:37;;;;;;;9.98;4.78;;;;;;;;;;4949893;28;20409;-71
2022/09/23 08:56:15;;;;;;;12.32;4.45;;;;;;;;;;4949639;28;20055;-72
2022/09/23 08:59:00;;;;;;;13.05;4.70;;;;;;;;;;4947958;28;20118;-70
2022/09/23 09:01:43;;;;;;;8.80;3.80;;;;;;;;;;4939699;28;20052;-71
2022/09/23 09:04:34;;;;;;;14.13;4.60;;;;;;;;;;4949871;28;20055;-72
2022/09/23 09:07:05;;;;;;;16.05;4.72;;;;;;;;;;4948008;28;20531;-71
2022/09/23 09:09:47;;;;;;;10.00;4.30;;;;;;;;;;4945938;28;20521;-73
2022/09/23 09:12:27;;;;;;;7.85;4.30;;;;;;;;;;4947955;28;20047;-69
2022/09/23 09:15:17;;;;;;;10.60;4.22;;;;;;;;;;4950421;28;20467;-69
2022/09/23 09:18:00;;;;;;;7.32;4.07;;;;;;;;;;4948788;28;20069;-71
2022/09/23 09:20:33;;;;;;;14.35;4.75;;;;;;;;;;4944738;28;20370;-70
2022/09/23 09:23:11;;;;;;;14.52;4.65;;;;;;;;;;4950054;28;20453;-70
2022/09/23 09:25:43;;;;;;;14.73;4.03;;;;;;;;;;4950524;28;20130;-71
2022/09/23 09:28:17;;;;;;;17.30;4.05;;;;;;;;;;4949725;28;20417;-68
2022/09/23 09:30:46;;;;;;;9.98;3.97;;;;;;;;;;4954562;28;20043;-67
2022/09/23 09:33:17;;;;;;;7.53;4.35;;;;;;;;;;4959911;28;20051;-69
2022/09/23 09:36:11;;;;;;;10.38;4.10;;;;;;;;;;4946359;28;20107;-70
2022/09/23 09:38:37;;;;;;;7.43;4.18;;;;;;;;;;4948360;28;20141;-74
2022/09/23 09:41:16;;;;;;;15.15;4.82;;;;;;;;;;4949560;28;20059;-71
2022/09/23 09:43:47;;;;;;;11.45;4.35;;;;;;;;;;4950164;28;20079;-71
2022/09/23 09:46:46;;;;;;;11.73;4.38;;;;;;;;;;4939162;28;20051;-70
2022/09/23 09:49:38;;;;;;;10.00;4.30;;;;;;;;;;4961053;28;20038;-72
2022/09/23 09:52:15;;;;;;;7.72;4.25;;;;;;;;;;4944883;28;20050;-70
2022/09/23 09:54:43;;;;;;;11.48;4.78;;;;;;;;;;4948083;28;20039;-72
2022/09/23 09:57:32;;;;;;;11.30;4.40;;;;;;;;;;4937002;28;20052;-69
2022/09/23 10:00:17;;;;;;;8.52;4.18;;;;;;;;;;4946749;28;20078;-69
2022/09/23 10:02:43;;;;;;;10.43;3.88;;;;;;;;;;4945259;28;20039;-70
2022/09/23 10:05:25;;;;;;;12.02;4.20;;;;;;;;;;4949882;28;20043;-69
2022/09/23 10:07:53;;;;;;;8.80;4.38;;;;;;;;;;4964008;28;20055;-71
2022/09/23 10:10:24;;;;;;;9.15;4.03;;;;;;;;;;4948637;28;20453;-73
2022/09/23 10:12:51;;;;;;;15.63;4.10;;;;;;;;;;4947033;28;20052;-71
2022/09/23 10:15:32;;;;;;;8.55;4.60;;;;;;;;;;4947179;28;20047;-70
2022/09/23 10:18:00;;;;;;;18.70;4.82;;;;;;;;;;4940278;28;20270;-70
2022/09/23 10:20:36;;;;;;;7.32;3.60;;;;;;;;;;4948903;28;20066;-70
2022/09/23 10:23:16;;;;;;;9.30;4.00;;;;;;;;;;4944278;28;20043;-69
2022/09/23 10:25:55;;;;;;;10.13;4.10;;;;;;;;;;4950112;28;20343;-70
2022/09/23 10:28:42;;;;;;;8.68;4.07;;;;;;;;;;4948366;28;20131;-72
2022/09/23 10:31:14;;;;;;;9.65;4.30;;;;;;;;;;4946171;28;20059;-71
2022/09/23 10:34:10;;;;;;;12.32;3.95;;;;;;;;;;4947204;28;20047;-68
2022/09/23 10:36:36;;;;;;;11.23;3.75;;;;;;;;;;4944913;28;20110;-69
2022/09/23 10:48:11;;;;;;;6.53;3.30;;;;;;;;;;4953622;28;20109;-68
2022/09/23 10:50:52;;;;;;;10.32;4.28;;;;;;;;;;4948658;28;20509;-71
2022/09/23 10:53:48;;;;;;;9.57;4.10;;;;;;;;;;4947054;28;20441;-73
2022/09/23 10:56:38;;;;;;;11.95;3.30;;;;;;;;;;4949386;28;20175;-69
2022/09/23 10:59:17;;;;;;;13.05;3.88;;;;;;;;;;4943059;28;20058;-72
2022/09/23 11:02:03;;;;;;;12.80;3.63;;;;;;;;;;4949044;28;20336;-70
2022/09/23 11:05:05;;;;;;;11.50;3.22;;;;;;;;;;4948619;28;20039;-69
2022/09/23 11:07:49;;;;;;;11.27;4.03;;;;;;;;;;4951578;28;20134;-72
2022/09/23 11:10:27;;;;;;;9.30;3.72;;;;;;;;;;4953041;28;20054;-69
2022/09/23 11:13:07;;;;;;;11.02;3.40;;;;;;;;;;4949840;28;20066;-71
2022/09/23 11:15:55;;;;;;;10.02;3.53;;;;;;;;;;4950045;28;20131;-70
2022/09/23 11:18:25;;;;;;;10.60;3.90;;;;;;;;;;4944520;28;20401;-74
2022/09/23 11:21:06;;;;;;;12.70;4.38;;;;;;;;;;4951787;28;20069;-72
2022/09/23 11:23:41;;;;;;;11.02;3.90;;;;;;;;;;4953757;28;20546;-70
2022/09/23 11:26:19;;;;;;;12.32;3.92;;;;;;;;;;4949814;28;20158;-69
2022/09/23 11:29:11;;;;;;;9.48;4.10;;;;;;;;;;4955549;28;20043;-70
2022/09/23 11:32:28;;;;;;;8.23;4.22;;;;;;;;;;4945455;28;20071;-69
2022/09/23 11:35:14;;;;;;;10.30;3.85;;;;;;;;;;4951984;28;20055;-72
2022/09/23 11:37:44;;;;;;;8.73;3.78;;;;;;;;;;4950508;28;20523;-71
2022/09/23 11:40:20;;;;;;;13.10;3.67;;;;;;;;;;4945879;28;20051;-72
2022/09/23 11:42:57;;;;;;;9.35;3.75;;;;;;;;;;4949877;28;20047;-67
2022/09/23 11:45:32;;;;;;;12.25;3.70;;;;;;;;;;4953086;28;20449;-66
2022/09/23 11:48:17;;;;;;;12.10;3.78;;;;;;;;;;4948423;28;20651;-67
2022/09/23 11:50:48;;;;;;;10.23;3.65;;;;;;;;;;4955462;28;20118;-72
2022/09/23 11:53:34;;;;;;;7.97;3.72;;;;;;;;;;4972098;28;20049;-71
2022/09/23 11:56:06;;;;;;;7.30;3.50;;;;;;;;;;4947722;28;20216;-71
2022/09/23 11:58:40;;;;;;;9.82;3.10;;;;;;;;;;4956184;28;20047;-68
2022/09/23 12:01:15;;;;;;;8.77;3.40;;;;;;;;;;4949103;28;20288;-70
2022/09/23 12:04:01;;;;;;;10.05;3.60;;;;;;;;;;4953324;28;20047;-69
2022/09/23 12:06:42;;;;;;;10.23;3.15;;;;;;;;;;4955796;28;20109;-72
2022/09/23 12:09:31;;;;;;;8.88;3.30;;;;;;;;;;4965010;28;20070;-70
2022/09/23 12:12:25;;;;;;;11.95;3.50;;;;;;;;;;4951571;28;20442;-70
2022/09/23 12:14:57;;;;;;;6.95;3.50;;;;;;;;;;4954890;28;20109;-70
2022/09/23 12:17:45;;;;;;;9.98;3.65;;;;;;;;;;4949665;28;20043;-70
2022/09/23 12:20:41;;;;;;;10.02;3.47;;;;;;;;;;4957351;28;20362;-68
2022/09/23 12:23:18;;;;;;;8.23;3.10;;;;;;;;;;4944730;28;20063;-70
2022/09/23 12:26:07;;;;;;;7.13;3.03;;;;;;;;;;4941691;28;20051;-69
2022/09/23 12:28:39;;;;;;;8.75;3.42;;;;;;;;;;4947967;28;20134;-67
2022/09/23 12:31:12;;;;;;;5.97;2.92;;;;;;;;;;4930308;28;20130;-68
2022/09/23 12:33:38;;;;;;;9.18;4.10;;;;;;;;;;4948205;28;20437;-70
2022/09/23 12:36:06;;;;;;;10.70;3.50;;;;;;;;;;4946049;28;20149;-75
2022/09/23 12:38:50;;;;;;;7.57;3.53;;;;;;;;;;4943801;28;20047;-71
2022/09/23 12:41:22;;;;;;;11.55;4.35;;;;;;;;;;4947351;28;20043;-70
2022/09/23 12:43:54;;;;;;;22.48;8.60;;;;;;;;;;4947257;28;20074;-70
2022/09/23 12:46:24;;;;;;;9.48;3.92;;;;;;;;;;4929890;28;20623;-68
2022/09/23 12:48:56;;;;;;;10.77;4.80;;;;;;;;;;4955749;28;20063;-69
2022/09/23 12:51:24;;;;;;;18.10;7.47;;;;;;;;;;4948066;28;20496;-70
2022/09/23 12:53:57;;;;;;;11.98;4.15;;;;;;;;;;4947090;28;20183;-69
2022/09/23 12:56:27;;;;;;;8.73;3.65;;;;;;;;;;4947894;28;20051;-70
2022/09/23 12:58:56;;;;;;;8.98;3.08;;;;;;;;;;4944337;28;20057;-68
2022/09/23 13:01:24;;;;;;;10.25;3.78;;;;;;;;;;4946517;28;20071;-67
2022/09/23 13:06:55;;;;;;;7.20;3.25;;;;;;;;;;4946691;28;20054;-67
2022/09/23 13:09:28;;;;;;;6.60;3.28;;;;;;;;;;4946342;28;20098;-70
2022/09/23 13:12:01;;;;;;;8.30;3.23;;;;;;;;;;4951540;28;20134;-69
2022/09/23 13:14:28;;;;;;;;;;;;;;;;;;4949635;28;20055;-69
2022/09/23 13:16:57;;;;;;;6.65;2.97;;;;;;;;;;4963761;28;19930;-71
2022/09/23 13:19:25;;;;;;;8.25;3.05;;;;;;;;;;4950088;28;20440;-69
2022/09/23 13:21:51;;;;;;;6.32;2.85;;;;;;;;;;4939843;28;20494;-70
2022/09/23 13:24:35;;;;;;;8.45;3.28;;;;;;;;;;4948258;28;20142;-69
2022/09/23 13:27:00;;;;;;;7.82;3.00;;;;;;;;;;4948350;28;20055;-71
2022/09/23 13:29:33;;;;;;;5.63;3.10;;;;;;;;;;4944956;28;20043;-70
2022/09/23 13:32:00;;;;;;;14.05;3.08;;;;;;;;;;4954530;28;20047;-68
2022/09/23 13:34:31;;;;;;;8.10;2.83;;;;;;;;;;4948467;28;20058;-72
2022/09/23 13:36:57;;;;;;;10.35;3.03;;;;;;;;;;4956124;28;20054;-69
2022/09/23 13:39:25;;;;;;;7.13;3.13;;;;;;;;;;4947994;28;20035;-70
2022/09/23 13:41:54;;;;;;;7.40;3.20;;;;;;;;;;4955110;28;20057;-68
2022/09/23 13:44:21;;;;;;;9.20;3.25;;;;;;;;;;4956044;28;20079;-67
2022/09/23 13:46:55;;;;;;;8.52;3.60;;;;;;;;;;4959128;28;20047;-69
2022/09/23 13:49:23;;;;;;;;;;;;;;;;;;4948903;28;20482;-73
2022/09/23 13:51:54;;;;;;;5.97;3.10;;;;;;;;;;4955565;28;20358;-68
2022/09/23 13:54:29;;;;;;;8.27;3.13;;;;;;;;;;4968344;28;20071;-72
2022/09/23 13:56:55;;;;;;;7.25;2.88;;;;;;;;;;4959064;28;20054;-68
2022/09/23 13:59:27;;;;;;;9.15;3.40;;;;;;;;;;4963348;28;20158;-67
2022/09/23 14:02:14;;;;;;;9.30;3.35;;;;;;;;;;4958234;28;20130;-69
2022/09/23 14:04:40;;;;;;;7.05;2.53;;;;;;;;;;4950362;28;20043;-65
2022/09/23 14:07:08;;;;;;;5.70;2.70;;;;;;;;;;4960805;28;20074;-69
2022/09/23 14:09:36;;;;;;;6.18;2.78;;;;;;;;;;4951236;28;20767;-67
2022/09/23 14:12:05;;;;;;;11.20;2.67;;;;;;;;;;4956543;28;22434;-70
2022/09/23 14:14:34;;;;;;;5.82;2.40;;;;;;;;;;4946182;28;20126;-67
2022/09/23 14:17:00;;;;;;;6.43;2.28;;;;;;;;;;4947391;28;20404;-69
2022/09/23 14:19:26;;;;;;;7.38;2.55;;;;;;;;;;4942008;28;20079;-69
2022/09/23 14:21:53;;;;;;;5.28;2.30;;;;;;;;;;4936524;28;20573;-71
2022/09/23 14:24:37;;;;;;;5.75;2.50;;;;;;;;;;4949455;28;20084;-70
2022/09/23 14:27:07;;;;;;;6.25;2.35;;;;;;;;;;4948915;28;20051;-68
2022/09/23 14:29:34;;;;;;;10.68;2.63;;;;;;;;;;4978070;28;20050;-70
2022/09/23 14:32:22;;;;;;;5.45;2.30;;;;;;;;;;4948433;28;20040;-72
2022/09/23 14:34:55;;;;;;;5.47;2.38;;;;;;;;;;4947559;28;20090;-70
2022/09/23 14:40:18;;;;;;;5.78;2.35;;;;;;;;;;4951472;28;20118;-70
2022/09/23 14:42:51;;;;;;;5.73;2.23;;;;;;;;;;4951405;28;20051;-71
2022/09/23 14:45:23;;;;;;;8.00;2.23;;;;;;;;;;4959515;28;20392;-70
2022/09/23 14:47:55;;;;;;;4.15;2.30;;;;;;;;;;4950610;28;20591;-68
2022/09/23 14:50:46;;;;;;;5.50;2.28;;;;;;;;;;4950898;28;20417;-64
2022/09/23 14:53:17;;;;;;;7.68;2.40;;;;;;;;;;4947841;28;20321;-70
2022/09/23 14:55:45;;;;;;;8.70;2.53;;;;;;;;;;4981886;28;20047;-71
2022/09/23 14:58:15;;;;;;;5.40;2.20;;;;;;;;;;4952237;28;20054;-72
2022/09/23 15:00:53;;;;;;;6.85;2.50;;;;;;;;;;4950849;28;20047;-70
2022/09/23 15:03:21;;;;;;;4.75;2.03;;;;;;;;;;4947535;28;20474;-68
2022/09/23 15:05:49;;;;;;;6.60;2.20;;;;;;;;;;4949928;28;20063;-67
2022/09/23 15:08:25;;;;;;;3.78;2.25;;;;;;;;;;4949041;28;20036;-67
2022/09/23 15:10:51;;;;;;;6.88;2.10;;;;;;;;;;4950380;28;20498;-70
2022/09/23 15:13:27;;;;;;;6.78;2.05;;;;;;;;;;4951614;28;20043;-69
2022/09/23 15:15:55;;;;;;;7.60;2.28;;;;;;;;;;4954349;28;20107;-69
2022/09/23 15:18:29;;;;;;;10.05;3.00;;;;;;;;;;4898844;28;1567300;-70
2022/09/23 15:21:08;;;;;;;8.23;2.20;;;;;;;;;;4951784;28;20047;-70
2022/09/23 15:23:52;;;;;;;4.90;2.33;;;;;;;;;;4966278;28;20296;-70
2022/09/23 15:26:38;;;;;;;5.95;2.15;;;;;;;;;;4952338;28;20058;-70